createdAt,value
2023-02-06T00:01:57.047Z,103219.66
2023-02-06T00:06:01.888Z,103212.09
2023-02-06T00:10:06.733Z,103212.88
2023-02-06T00:14:09.972Z,103206.19
2023-02-06T00:18:13.083Z,103204.06
2023-02-06T00:22:16.087Z,103194.22
2023-02-06T00:26:21.135Z,103185.16
2023-02-06T00:30:24.154Z,103185.72
2023-02-06T00:34:27.496Z,103182.47
2023-02-06T00:38:30.734Z,103177.44
2023-02-06T00:42:35.696Z,103180.22
2023-02-06T00:46:38.802Z,103179.81
2023-02-06T00:50:42.149Z,103181.84
2023-02-06T00:54:45.137Z,103174.53
2023-02-06T00:58:50.448Z,103177.69
2023-02-06T01:02:53.517Z,103176.78
2023-02-06T01:06:56.835Z,103169.13
2023-02-06T01:10:59.859Z,103172.13
2023-02-06T01:15:04.722Z,103180.16
2023-02-06T01:19:07.882Z,103174.72
2023-02-06T01:23:10.869Z,103179.84
2023-02-06T01:27:13.885Z,103184.72
2023-02-06T01:31:21.132Z,103186.22
2023-02-06T01:35:24.480Z,103198.91
2023-02-06T01:39:27.593Z,103206.75
2023-02-06T01:43:33.477Z,103198.97
2023-02-06T01:47:38.630Z,103199.09
2023-02-06T01:51:42.235Z,103196.88
2023-02-06T01:55:47.576Z,103193.81
2023-02-06T01:59:53.489Z,103192.06
2023-02-06T02:04:05.527Z,103181.97
2023-02-06T02:08:17.217Z,103175.88
2023-02-06T02:12:21.228Z,103175.09
2023-02-06T02:16:27.894Z,103187.81
2023-02-06T02:21:24.577Z,103189.66
2023-02-06T02:26:04.564Z,103185.66
2023-02-06T02:30:44.807Z,103188.00
2023-02-06T02:35:15.733Z,103189.19
2023-02-06T02:39:25.884Z,103189.59
2023-02-06T02:43:36.499Z,103195.66
2023-02-06T02:47:46.857Z,103194.59
2023-02-06T02:51:52.816Z,103196.09
2023-02-06T02:55:56.199Z,103200.00
2023-02-06T03:00:02.398Z,103190.88
2023-02-06T03:04:13.745Z,103186.44
2023-02-06T03:08:26.998Z,103185.84
2023-02-06T03:12:39.748Z,103185.13
2023-02-06T03:16:48.734Z,103187.31
2023-02-06T03:20:53.159Z,103192.00
2023-02-06T03:24:59.185Z,103190.41
2023-02-06T03:29:06.741Z,103181.94
2023-02-06T03:33:14.626Z,103176.16
2023-02-06T03:37:18.105Z,103169.78
2023-02-06T03:41:26.960Z,103175.06
2023-02-06T03:45:33.394Z,103173.25
2023-02-06T03:49:39.091Z,103178.00
2023-02-06T03:53:43.649Z,103192.56
2023-02-06T03:57:57.459Z,103178.47
2023-02-06T04:02:03.512Z,103178.06
2023-02-06T04:06:06.670Z,103169.47
2023-02-06T04:10:10.104Z,103176.03
2023-02-06T04:14:14.458Z,103173.88
2023-02-06T04:18:17.451Z,103173.72
2023-02-06T04:22:20.460Z,103163.44
2023-02-06T04:26:23.481Z,103168.50
2023-02-06T04:30:28.023Z,103173.72
2023-02-06T04:34:31.122Z,103167.06
2023-02-06T04:38:34.191Z,103177.34
2023-02-06T04:42:37.292Z,103192.88
2023-02-06T04:46:43.266Z,103198.16
2023-02-06T04:50:46.308Z,103199.84
2023-02-06T04:54:49.325Z,103194.66
2023-02-06T04:58:52.423Z,103188.94
2023-02-06T05:02:56.816Z,103191.22
2023-02-06T05:06:59.857Z,103198.91
2023-02-06T05:11:02.880Z,103195.97
2023-02-06T05:15:06.679Z,103202.59
2023-02-06T05:19:11.045Z,103196.50
2023-02-06T05:23:14.055Z,103200.16
2023-02-06T05:27:17.076Z,103189.94
2023-02-06T05:31:20.794Z,103194.38
2023-02-06T05:35:25.762Z,103220.78
2023-02-06T05:39:29.074Z,103224.53
2023-02-06T05:43:32.680Z,103225.91
2023-02-06T05:47:35.775Z,103212.84
2023-02-06T05:51:40.154Z,103211.78
2023-02-06T05:55:43.260Z,103208.84
2023-02-06T05:59:46.288Z,103210.59
2023-02-06T06:03:49.395Z,103198.06
2023-02-06T06:07:53.803Z,103192.41
2023-02-06T06:11:56.792Z,103196.00
2023-02-06T06:15:59.796Z,103198.59
2023-02-06T06:20:02.866Z,103190.28
2023-02-06T06:24:07.947Z,103200.88
2023-02-06T06:28:11.125Z,103204.34
2023-02-06T06:32:14.199Z,103195.13
2023-02-06T06:36:17.785Z,103197.38
2023-02-06T06:40:22.330Z,103192.94
2023-02-06T06:44:25.317Z,103196.34
2023-02-06T06:48:28.561Z,103197.03
2023-02-06T06:52:31.574Z,103197.47
2023-02-06T06:56:35.944Z,103204.34
2023-02-06T07:00:39.925Z,103207.31
2023-02-06T07:04:43.383Z,103207.31
2023-02-06T07:08:46.453Z,103189.91
2023-02-06T07:12:53.564Z,103197.72
2023-02-06T07:16:56.667Z,103173.75
2023-02-06T07:20:59.844Z,103177.47
2023-02-06T07:25:02.862Z,103181.50
2023-02-06T07:29:07.254Z,103182.69
2023-02-06T07:33:10.298Z,103177.22
2023-02-06T07:37:13.332Z,103173.03
2023-02-06T07:41:17.997Z,103179.03
2023-02-06T07:45:22.509Z,103188.00
2023-02-06T07:49:25.547Z,103193.38
2023-02-06T07:53:28.546Z,103186.41
2023-02-06T07:57:31.738Z,103191.53
2023-02-06T08:01:36.645Z,103187.16
2023-02-06T08:05:40.227Z,103193.91
2023-02-06T08:09:43.293Z,103197.09
2023-02-06T08:13:47.481Z,103202.78
2023-02-06T08:17:52.009Z,103199.97
2023-02-06T08:21:55.009Z,103192.38
2023-02-06T08:26:03.857Z,103193.16
2023-02-06T08:30:07.757Z,103190.09
2023-02-06T08:34:14.562Z,103186.94
2023-02-06T08:38:17.586Z,103200.13
2023-02-06T08:42:20.676Z,103189.88
2023-02-06T08:46:25.417Z,103187.22
2023-02-06T08:50:29.846Z,103186.13
2023-02-06T08:54:35.493Z,103199.63
2023-02-06T08:58:40.338Z,103187.28
2023-02-06T09:02:43.674Z,103184.84
2023-02-06T09:06:49.118Z,103185.63
2023-02-06T09:10:52.297Z,103173.25
2023-02-06T09:14:55.390Z,103178.31
2023-02-06T09:19:01.420Z,103173.06
2023-02-06T09:23:06.102Z,103175.53
2023-02-06T09:27:09.147Z,103174.31
2023-02-06T09:31:12.754Z,103177.66
2023-02-06T09:35:16.053Z,103174.19
2023-02-06T09:39:20.490Z,103177.59
2023-02-06T09:43:24.250Z,103187.25
2023-02-06T09:47:31.789Z,103176.50
2023-02-06T09:51:43.634Z,103184.16
2023-02-06T09:55:53.224Z,103195.78
2023-02-06T10:00:01.348Z,103201.94
2023-02-06T10:04:36.102Z,103198.34
2023-02-06T10:08:43.217Z,103211.72
2023-02-06T10:12:56.012Z,103216.69
2023-02-06T10:17:02.451Z,103211.44
2023-02-06T10:21:12.177Z,103221.47
2023-02-06T10:25:25.750Z,103229.41
2023-02-06T10:29:33.121Z,103225.31
2023-02-06T10:33:46.449Z,103221.75
2023-02-06T10:38:09.439Z,103209.53
2023-02-06T10:42:21.768Z,103211.78
2023-02-06T10:46:41.246Z,103212.03
2023-02-06T10:50:49.823Z,103203.06
2023-02-06T10:54:56.673Z,103211.31
2023-02-06T10:59:03.201Z,103210.97
2023-02-06T11:03:15.528Z,103202.78
2023-02-06T11:07:25.863Z,103193.22
2023-02-06T11:11:32.194Z,103184.97
2023-02-06T11:15:39.519Z,103192.47
2023-02-06T11:19:45.391Z,103188.28
2023-02-06T11:24:08.489Z,103180.50
2023-02-06T11:28:15.650Z,103177.19
2023-02-06T11:32:31.366Z,103153.13
2023-02-06T11:36:38.548Z,103161.19
2023-02-06T11:40:41.587Z,103149.97
2023-02-06T11:44:48.540Z,103140.94
2023-02-06T11:49:03.737Z,103128.88
2023-02-06T11:53:12.458Z,103121.84
2023-02-06T11:57:22.200Z,103116.25
2023-02-06T12:01:25.625Z,103107.44
2023-02-06T12:05:35.622Z,103116.91
2023-02-06T12:09:40.392Z,103116.13
2023-02-06T12:13:46.902Z,103114.41
2023-02-06T12:17:56.565Z,103111.16
2023-02-06T12:22:04.000Z,103115.69
2023-02-06T12:26:13.019Z,103099.44
2023-02-06T12:30:30.441Z,103088.50
2023-02-06T12:34:49.694Z,103089.56
2023-02-06T12:38:57.701Z,103069.69
2023-02-06T12:43:05.520Z,103036.59
2023-02-06T12:47:18.766Z,103014.59
2023-02-06T12:51:26.827Z,103004.50
2023-02-06T12:55:32.865Z,102992.16
2023-02-06T12:59:59.821Z,102989.94
2023-02-06T13:04:06.512Z,102973.44
2023-02-06T13:08:13.426Z,102968.69
2023-02-06T13:12:20.770Z,102974.91
2023-02-06T13:16:38.760Z,102955.38
2023-02-06T13:21:18.532Z,102944.47
2023-02-06T13:25:51.510Z,102956.84
2023-02-06T13:29:54.878Z,102942.72
2023-02-06T13:34:03.640Z,102941.78
2023-02-06T13:38:28.527Z,102937.06
2023-02-06T13:42:41.268Z,102948.69
2023-02-06T13:47:16.468Z,102954.84
2023-02-06T13:51:48.489Z,102960.66
2023-02-06T13:56:07.225Z,102981.22
2023-02-06T14:00:15.438Z,102983.78
2023-02-06T14:04:24.851Z,102975.13
2023-02-06T14:08:40.799Z,102977.53
2023-02-06T14:12:58.446Z,102982.47
2023-02-06T14:17:10.956Z,102995.72
2023-02-06T14:21:35.383Z,102990.13
2023-02-06T14:25:57.429Z,102984.41
2023-02-06T14:30:20.403Z,102978.31
2023-02-06T14:34:38.178Z,102983.53
2023-02-06T14:39:04.337Z,102982.75
2023-02-06T14:43:15.599Z,102990.66
2023-02-06T14:47:21.739Z,102986.19
2023-02-06T14:51:29.383Z,102989.66
2023-02-06T14:55:36.599Z,102985.97
2023-02-06T14:59:51.544Z,102987.69
2023-02-06T15:04:10.267Z,102967.47
2023-02-06T15:08:19.083Z,102963.00
2023-02-06T15:12:26.669Z,102964.50
2023-02-06T15:16:33.095Z,102969.19
2023-02-06T15:20:40.284Z,102967.31
2023-02-06T15:24:58.902Z,102985.72
2023-02-06T15:29:03.579Z,102983.13
2023-02-06T15:33:13.926Z,103002.25
2023-02-06T15:37:25.012Z,102993.13
2023-02-06T15:41:30.048Z,102999.28
2023-02-06T15:45:35.943Z,102992.59
2023-02-06T15:49:43.341Z,102988.28
2023-02-06T15:53:48.573Z,102988.88
2023-02-06T15:57:52.342Z,102985.91
2023-02-06T16:01:58.097Z,102974.78
2023-02-06T16:06:02.707Z,102976.78
2023-02-06T16:10:21.078Z,102968.13
2023-02-06T16:14:34.045Z,102970.59
2023-02-06T16:18:38.567Z,102966.63
2023-02-06T16:22:42.978Z,102978.13
2023-02-06T16:26:48.100Z,102959.47
2023-02-06T16:30:55.904Z,102966.63
2023-02-06T16:35:01.284Z,102964.44
2023-02-06T16:39:05.876Z,102968.88
2023-02-06T16:43:11.930Z,102965.88
2023-02-06T16:47:16.987Z,102954.78
2023-02-06T16:51:22.410Z,102962.66
2023-02-06T16:55:29.157Z,102956.59
2023-02-06T16:59:32.219Z,102954.84
2023-02-06T17:03:37.915Z,102955.19
2023-02-06T17:07:41.633Z,102963.22
2023-02-06T17:11:46.201Z,102958.19
2023-02-06T17:15:52.250Z,102953.50
2023-02-06T17:19:55.358Z,102944.91
2023-02-06T17:23:58.504Z,102954.94
2023-02-06T17:28:03.036Z,102953.56
2023-02-06T17:32:08.074Z,102950.38
2023-02-06T17:36:16.566Z,102951.91
2023-02-06T17:40:22.201Z,102955.94
2023-02-06T17:44:26.857Z,102968.91
2023-02-06T17:48:29.870Z,102968.16
2023-02-06T17:52:33.104Z,102957.75
2023-02-06T17:56:36.565Z,102955.97
2023-02-06T18:00:41.027Z,102949.88
2023-02-06T18:04:44.205Z,102953.56
2023-02-06T18:08:48.165Z,102952.88
2023-02-06T18:12:51.629Z,102953.84
2023-02-06T18:16:56.032Z,102963.94
2023-02-06T18:20:59.311Z,102969.25
2023-02-06T18:25:05.248Z,102976.16
2023-02-06T18:29:08.414Z,102974.44
2023-02-06T18:33:13.757Z,102980.00
2023-02-06T18:37:17.490Z,102984.47
2023-02-06T18:41:40.511Z,102980.06
2023-02-06T18:45:43.902Z,102985.91
2023-02-06T18:49:48.341Z,102987.34
2023-02-06T18:53:51.533Z,102979.41
2023-02-06T18:57:54.869Z,102969.13
2023-02-06T19:01:57.974Z,102969.88
2023-02-06T19:06:02.403Z,102967.50
2023-02-06T19:10:09.713Z,102982.34
2023-02-06T19:14:16.858Z,102984.28
2023-02-06T19:18:32.415Z,102977.03
2023-02-06T19:22:41.479Z,102972.91
2023-02-06T19:26:44.510Z,102980.06
2023-02-06T19:30:47.661Z,102976.59
2023-02-06T19:34:50.730Z,102970.63
2023-02-06T19:38:57.212Z,102986.78
2023-02-06T19:43:00.370Z,102983.84
2023-02-06T19:47:04.164Z,102988.72
2023-02-06T19:51:09.931Z,102983.44
2023-02-06T19:55:14.417Z,102975.72
2023-02-06T19:59:19.676Z,102984.03
2023-02-06T20:03:22.899Z,102982.78
2023-02-06T20:07:25.935Z,102995.63
2023-02-06T20:11:31.687Z,102991.47
2023-02-06T20:15:38.738Z,102993.69
2023-02-06T20:19:41.775Z,102996.25
2023-02-06T20:23:45.017Z,102989.66
2023-02-06T20:27:49.459Z,102983.28
2023-02-06T20:31:53.505Z,102979.94
2023-02-06T20:35:56.600Z,102975.66
2023-02-06T20:40:00.758Z,102978.84
2023-02-06T20:44:05.556Z,102979.81
2023-02-06T20:48:08.614Z,102973.28
2023-02-06T20:52:11.684Z,102973.50
2023-02-06T20:56:15.701Z,102970.31
2023-02-06T21:00:20.575Z,102967.22
2023-02-06T21:04:23.759Z,102963.19
2023-02-06T21:08:27.992Z,102958.66
2023-02-06T21:12:31.049Z,102961.25
2023-02-06T21:16:37.653Z,102952.94
2023-02-06T21:20:40.703Z,102946.75
2023-02-06T21:24:43.917Z,102947.47
2023-02-06T21:28:47.400Z,102950.66
2023-02-06T21:32:51.817Z,102939.47
2023-02-06T21:36:54.887Z,102928.00
2023-02-06T21:41:03.879Z,102923.75
2023-02-06T21:45:08.027Z,102933.06
2023-02-06T21:49:12.429Z,102933.38
2023-02-06T21:53:15.469Z,102944.50
2023-02-06T21:57:18.619Z,102942.13
2023-02-06T22:01:23.918Z,102942.25
2023-02-06T22:05:29.102Z,102931.44
2023-02-06T22:09:32.277Z,102936.38
2023-02-06T22:13:35.349Z,102925.59
2023-02-06T22:17:38.393Z,102917.69
2023-02-06T22:21:42.874Z,102913.66
2023-02-06T22:25:48.786Z,102908.44
2023-02-06T22:29:51.933Z,102903.69
2023-02-06T22:33:55.936Z,102909.06
2023-02-06T22:38:00.746Z,102907.34
2023-02-06T22:42:03.864Z,102910.22
2023-02-06T22:46:08.162Z,102923.94
2023-02-06T22:50:11.217Z,102927.41
2023-02-06T22:54:15.705Z,102925.84
2023-02-06T22:58:18.742Z,102921.88
2023-02-06T23:02:21.864Z,102930.88
2023-02-06T23:06:25.846Z,102944.56
2023-02-06T23:10:30.224Z,102943.41
2023-02-06T23:14:34.133Z,102926.25
2023-02-06T23:18:37.458Z,102932.41
2023-02-06T23:22:40.514Z,102929.31
2023-02-06T23:26:47.758Z,102920.56
2023-02-06T23:30:51.214Z,102932.22
2023-02-06T23:34:54.274Z,102940.13
2023-02-06T23:38:57.554Z,102924.28
2023-02-06T23:43:02.530Z,102922.69
2023-02-06T23:47:06.022Z,102937.38
2023-02-06T23:51:09.100Z,102929.75
2023-02-06T23:55:12.825Z,102923.38
2023-02-06T23:59:17.195Z,102937.91
